Time;durP1;ratioP1;P1;durP2;ratioP2;P2;SDS_P1;SDS_P2;PMS_P1;PMS_P2;Temp;Humidity;BMP_temperature;BMP_pressure;BME280_temperature;BME280_humidity;BME280_pressure;Samples;Min_cycle;Max_cycle;Signal;HPM_P1;HPM_P2
2022/12/22 03:26:08;;;;;;;3.80;1.50;;;;;;;;;;2079409;28;20113;-84
2022/12/22 03:27:27;;;;;;;3.17;1.65;;;;;;;;;;2078239;28;20045;-84
2022/12/22 03:28:46;;;;;;;5.78;2.22;;;;;;;;;;2073778;28;20061;-84
2022/12/22 03:30:05;;;;;;;5.80;2.47;;;;;;;;;;2079181;28;20116;-84
2022/12/22 03:31:25;;;;;;;5.63;2.08;;;;;;;;;;2078918;28;20057;-84
2022/12/22 03:32:44;;;;;;;8.50;2.88;;;;;;;;;;2080085;28;20426;-84
2022/12/22 03:34:03;;;;;;;8.10;2.10;;;;;;;;;;2076491;28;20068;-85
2022/12/22 03:35:21;;;;;;;5.53;1.67;;;;;;;;;;2076344;28;20026;-84
2022/12/22 03:36:41;;;;;;;6.80;1.75;;;;;;;;;;2073633;28;20402;-84
2022/12/22 03:38:02;;;;;;;4.75;2.00;;;;;;;;;;2075924;28;20655;-85
2022/12/22 03:39:21;;;;;;;5.30;1.80;;;;;;;;;;2080514;28;20026;-84
2022/12/22 03:40:40;;;;;;;6.80;1.90;;;;;;;;;;2084272;28;20476;-84
2022/12/22 03:46:52;;;;;;;6.93;2.00;;;;;;;;;;2079503;28;20030;-82
2022/12/22 03:48:11;;;;;;;7.40;2.22;;;;;;;;;;2079141;28;20109;-81
2022/12/22 03:49:30;;;;;;;4.55;1.77;;;;;;;;;;2078937;28;20029;-84
2022/12/22 03:50:49;;;;;;;6.13;1.85;;;;;;;;;;2080615;28;20072;-84
2022/12/22 03:52:08;;;;;;;5.10;1.58;;;;;;;;;;2076882;28;20046;-83
2022/12/22 03:53:27;;;;;;;6.80;1.85;;;;;;;;;;2074708;28;20041;-83
2022/12/22 03:54:46;;;;;;;8.05;2.25;;;;;;;;;;2078851;28;20070;-83
2022/12/22 03:56:05;;;;;;;7.72;1.92;;;;;;;;;;2076017;28;20030;-83
2022/12/22 03:57:24;;;;;;;3.55;1.92;;;;;;;;;;2083525;28;20025;-83
2022/12/22 03:58:43;;;;;;;3.08;2.15;;;;;;;;;;2079391;28;20021;-83
2022/12/22 04:00:03;;;;;;;3.67;1.88;;;;;;;;;;2075993;28;20030;-83
2022/12/22 04:01:23;;;;;;;6.97;2.20;;;;;;;;;;2079494;28;20052;-82
2022/12/22 04:02:41;;;;;;;6.88;2.20;;;;;;;;;;2077114;28;20026;-83
2022/12/22 04:04:00;;;;;;;9.20;1.80;;;;;;;;;;2076041;28;20034;-82
2022/12/22 04:05:19;;;;;;;2.17;1.40;;;;;;;;;;2076010;28;20049;-82
2022/12/22 04:06:38;;;;;;;5.70;1.40;;;;;;;;;;2075226;28;20060;-82
2022/12/22 04:07:57;;;;;;;3.72;1.60;;;;;;;;;;2075767;28;20022;-83
2022/12/22 04:09:16;;;;;;;4.13;1.38;;;;;;;;;;2080068;28;20029;-83
2022/12/22 04:14:07;;;;;;;7.50;2.03;;;;;;;;;;2078366;28;20038;-83
2022/12/22 04:15:30;;;;;;;2.88;1.23;;;;;;;;;;2078541;28;20030;-83
2022/12/22 04:16:49;;;;;;;5.82;1.60;;;;;;;;;;2077180;28;20037;-84
2022/12/22 04:18:08;;;;;;;4.13;1.88;;;;;;;;;;2078177;28;20034;-83
2022/12/22 04:19:27;;;;;;;6.22;1.42;;;;;;;;;;2079681;28;20025;-83
2022/12/22 04:20:47;;;;;;;4.30;1.70;;;;;;;;;;2076774;28;20017;-83
2022/12/22 04:22:06;;;;;;;4.28;1.88;;;;;;;;;;2077117;28;20112;-82
2022/12/22 04:23:25;;;;;;;6.78;1.73;;;;;;;;;;2074979;28;20025;-83
2022/12/22 04:24:44;;;;;;;2.72;1.48;;;;;;;;;;2075642;28;20406;-82
2022/12/22 04:26:03;;;;;;;2.92;1.73;;;;;;;;;;2076325;28;20502;-83
2022/12/22 04:27:22;;;;;;;3.30;1.70;;;;;;;;;;2080707;28;20478;-82
2022/12/22 04:28:41;;;;;;;4.53;1.40;;;;;;;;;;2079746;28;20049;-83
2022/12/22 04:29:59;;;;;;;4.72;1.80;;;;;;;;;;2079695;28;20025;-83
2022/12/22 04:31:19;;;;;;;5.82;2.25;;;;;;;;;;2079563;28;20022;-83
2022/12/22 04:32:38;;;;;;;2.42;1.55;;;;;;;;;;2085390;28;20033;-84
2022/12/22 04:33:57;;;;;;;3.38;1.30;;;;;;;;;;2079334;28;20029;-83
2022/12/22 04:35:16;;;;;;;2.65;1.55;;;;;;;;;;2079601;28;20033;-83
2022/12/22 04:36:35;;;;;;;5.22;1.88;;;;;;;;;;2078584;28;20043;-83
2022/12/22 04:37:54;;;;;;;3.53;1.25;;;;;;;;;;2074470;28;20104;-83
2022/12/22 04:39:13;;;;;;;2.67;1.35;;;;;;;;;;2075364;28;20034;-83
2022/12/22 04:40:32;;;;;;;2.97;1.20;;;;;;;;;;2075394;28;20025;-83
2022/12/22 04:41:51;;;;;;;4.28;1.70;;;;;;;;;;2079992;28;20025;-82
2022/12/22 04:43:10;;;;;;;1.35;1.10;;;;;;;;;;2082158;28;20482;-83
2022/12/22 04:44:29;;;;;;;2.65;1.38;;;;;;;;;;2079846;28;20082;-82
2022/12/22 04:45:51;;;;;;;5.75;1.60;;;;;;;;;;2077591;28;20415;-82
2022/12/22 04:47:10;;;;;;;6.65;1.50;;;;;;;;;;2078370;28;20029;-83
2022/12/22 04:48:29;;;;;;;4.20;1.58;;;;;;;;;;2075446;28;20037;-83
2022/12/22 04:49:48;;;;;;;3.90;1.92;;;;;;;;;;2080861;28;20029;-81
2022/12/22 04:51:07;;;;;;;3.40;2.00;;;;;;;;;;2081229;28;20037;-82
2022/12/22 04:52:26;;;;;;;3.70;1.30;;;;;;;;;;2078566;28;20108;-82
2022/12/22 04:53:45;;;;;;;4.13;1.58;;;;;;;;;;2076993;28;20343;-83
2022/12/22 04:55:05;;;;;;;2.80;1.77;;;;;;;;;;2076601;28;20680;-82
2022/12/22 04:56:24;;;;;;;2.08;1.52;;;;;;;;;;2077085;28;20041;-84
2022/12/22 04:57:43;;;;;;;3.97;1.67;;;;;;;;;;2081530;28;20116;-83
2022/12/22 04:59:02;;;;;;;3.85;1.42;;;;;;;;;;2080859;28;20034;-84
2022/12/22 05:00:20;;;;;;;5.22;1.70;;;;;;;;;;2075487;28;20057;-84
2022/12/22 05:01:39;;;;;;;4.60;1.83;;;;;;;;;;2076908;28;20083;-83
2022/12/22 05:02:58;;;;;;;4.78;1.70;;;;;;;;;;2085209;28;20056;-83
2022/12/22 05:04:17;;;;;;;4.35;1.75;;;;;;;;;;2082451;28;20021;-83
2022/12/22 05:05:36;;;;;;;5.90;1.90;;;;;;;;;;2080861;28;20033;-84
2022/12/22 05:06:55;;;;;;;2.58;1.85;;;;;;;;;;2080421;28;20037;-83
2022/12/22 05:08:14;;;;;;;7.32;2.03;;;;;;;;;;2080605;28;20025;-83
2022/12/22 05:09:33;;;;;;;8.68;2.17;;;;;;;;;;2076979;28;20030;-84
2022/12/22 05:10:52;;;;;;;4.53;1.77;;;;;;;;;;2076669;28;20030;-83
2022/12/22 05:13:48;;;;;;;4.55;1.48;;;;;;;;;;2080835;28;20452;-83
2022/12/22 05:15:07;;;;;;;3.15;1.88;;;;;;;;;;2079439;28;20092;-83
2022/12/22 05:16:29;;;;;;;3.33;1.80;;;;;;;;;;2081105;28;20033;-83
2022/12/22 05:17:48;;;;;;;6.43;2.33;;;;;;;;;;2080665;28;20033;-83
2022/12/22 05:19:07;;;;;;;4.43;2.13;;;;;;;;;;2076811;28;20033;-83
2022/12/22 05:20:26;;;;;;;6.70;2.30;;;;;;;;;;2077253;28;20073;-83
2022/12/22 05:21:45;;;;;;;5.07;2.17;;;;;;;;;;2078884;28;20029;-82
2022/12/22 05:23:06;;;;;;;3.30;1.75;;;;;;;;;;2080863;28;20116;-83
2022/12/22 05:24:25;;;;;;;7.57;2.80;;;;;;;;;;2080411;28;20029;-83
2022/12/22 05:25:44;;;;;;;8.95;3.70;;;;;;;;;;2085777;28;20055;-83
2022/12/22 05:27:03;;;;;;;8.20;5.70;;;;;;;;;;2080744;28;20037;-83
2022/12/22 05:28:22;;;;;;;2.60;1.90;;;;;;;;;;2077590;28;20057;-84
2022/12/22 05:29:42;;;;;;;5.50;2.13;;;;;;;;;;2075682;28;20030;-84
2022/12/22 05:31:08;;;;;;;4.95;1.83;;;;;;;;;;2077218;28;20482;-83
2022/12/22 05:32:27;;;;;;;2.72;1.60;;;;;;;;;;2078573;28;20025;-83
2022/12/22 05:33:47;;;;;;;2.40;1.40;;;;;;;;;;2074944;28;20065;-84
2022/12/22 05:35:06;;;;;;;2.47;1.70;;;;;;;;;;2076633;28;20037;-83
2022/12/22 05:36:25;;;;;;;5.93;1.88;;;;;;;;;;2084919;28;20029;-84
2022/12/22 05:37:44;;;;;;;2.63;1.80;;;;;;;;;;2079196;28;20065;-84
2022/12/22 05:39:03;;;;;;;4.03;1.95;;;;;;;;;;2080036;28;20034;-84
2022/12/22 05:40:22;;;;;;;6.72;2.00;;;;;;;;;;2075706;28;21347;-86
2022/12/22 05:41:41;;;;;;;4.55;2.13;;;;;;;;;;2077135;28;20029;-87
2022/12/22 05:43:00;;;;;;;4.18;1.90;;;;;;;;;;2076810;28;20088;-87
2022/12/22 05:44:19;;;;;;;3.35;1.90;;;;;;;;;;2086588;28;20051;-88
2022/12/22 05:45:51;;;;;;;3.88;1.80;;;;;;;;;;2080992;28;20515;-86
2022/12/22 05:47:14;;;;;;;3.78;2.10;;;;;;;;;;2080428;28;20018;-86
2022/12/22 05:48:39;;;;;;;4.07;1.90;;;;;;;;;;2078289;28;20022;-86
2022/12/22 05:50:04;;;;;;;4.50;1.83;;;;;;;;;;2087071;28;20037;-86
2022/12/22 05:51:26;;;;;;;3.50;2.00;;;;;;;;;;2077878;28;20037;-87
2022/12/22 05:52:48;;;;;;;6.93;2.38;;;;;;;;;;2076146;28;20026;-85
2022/12/22 05:54:08;;;;;;;4.32;2.22;;;;;;;;;;2076563;28;20022;-83
2022/12/22 05:55:41;;;;;;;5.35;2.10;;;;;;;;;;2083936;28;20045;-91
2022/12/22 05:57:00;;;;;;;7.72;2.58;;;;;;;;;;2077417;28;20128;-82
2022/12/22 05:58:21;;;;;;;3.13;1.95;;;;;;;;;;2074949;28;20033;-84
2022/12/22 05:59:49;;;;;;;3.08;2.10;;;;;;;;;;2083596;28;20061;-82
2022/12/22 06:01:08;;;;;;;6.25;2.03;;;;;;;;;;2077924;28;20627;-83
2022/12/22 06:02:27;;;;;;;1.85;1.75;;;;;;;;;;2078022;28;20029;-83
2022/12/22 06:03:46;;;;;;;6.13;1.80;;;;;;;;;;2077353;28;20558;-83
2022/12/22 06:05:20;;;;;;;3.95;2.17;;;;;;;;;;2078571;28;20034;-83
2022/12/22 06:06:39;;;;;;;7.65;2.15;;;;;;;;;;2078942;28;20033;-82
2022/12/22 06:07:58;;;;;;;2.92;1.70;;;;;;;;;;2085584;28;20511;-83
2022/12/22 06:09:17;;;;;;;8.57;2.25;;;;;;;;;;2081428;28;20093;-84
2022/12/22 06:10:36;;;;;;;4.10;2.65;;;;;;;;;;2079606;28;20394;-82
2022/12/22 06:11:55;;;;;;;3.42;2.70;;;;;;;;;;2083295;28;20060;-84
2022/12/22 06:13:14;;;;;;;2.03;1.60;;;;;;;;;;2081286;28;20033;-81
2022/12/22 06:14:33;;;;;;;5.80;2.03;;;;;;;;;;2079371;28;20039;-80
2022/12/22 06:15:53;;;;;;;4.30;1.80;;;;;;;;;;2075362;28;21004;-81
2022/12/22 06:17:12;;;;;;;3.25;1.77;;;;;;;;;;2076811;28;20037;-82
2022/12/22 06:18:31;;;;;;;1.70;1.60;;;;;;;;;;2076909;28;20109;-79
2022/12/22 06:19:50;;;;;;;2.90;1.90;;;;;;;;;;2079756;28;20029;-80
2022/12/22 06:21:09;;;;;;;6.13;2.00;;;;;;;;;;2076099;28;20034;-79
2022/12/22 06:22:28;;;;;;;2.97;2.47;;;;;;;;;;2079623;28;20029;-78
2022/12/22 06:23:47;;;;;;;4.40;3.13;;;;;;;;;;2078785;28;20034;-78
2022/12/22 06:25:06;;;;;;;6.10;2.60;;;;;;;;;;2077187;28;20030;-79
2022/12/22 06:26:25;;;;;;;3.55;2.42;;;;;;;;;;2077042;28;20061;-81
2022/12/22 06:27:45;;;;;;;5.57;2.28;;;;;;;;;;2076290;28;20033;-79
2022/12/22 06:29:04;;;;;;;5.45;2.25;;;;;;;;;;2075448;28;20704;-81
2022/12/22 06:30:23;;;;;;;4.43;1.60;;;;;;;;;;2074933;28;20462;-79
2022/12/22 06:31:45;;;;;;;3.75;2.65;;;;;;;;;;2083170;28;20017;-81
2022/12/22 06:33:04;;;;;;;;;;;;;;;;;;2078658;28;20104;-82
2022/12/22 06:34:24;;;;;;;4.13;2.10;;;;;;;;;;2084315;28;19912;-83
2022/12/22 06:35:42;;;;;;;6.15;2.28;;;;;;;;;;2080076;28;20021;-82
2022/12/22 06:37:01;;;;;;;2.33;1.92;;;;;;;;;;2075860;28;20041;-85
2022/12/22 06:38:20;;;;;;;2.90;1.88;;;;;;;;;;2080727;28;20403;-80
2022/12/22 06:39:39;;;;;;;3.33;1.80;;;;;;;;;;2078479;28;20438;-79
2022/12/22 06:41:03;;;;;;;2.95;2.17;;;;;;;;;;2076928;28;20022;-84
2022/12/22 06:43:59;;;;;;;5.53;2.40;;;;;;;;;;2080665;28;20101;-81
2022/12/22 06:45:18;;;;;;;5.43;2.00;;;;;;;;;;2079612;28;20033;-79
2022/12/22 06:46:40;;;;;;;2.30;2.10;;;;;;;;;;2076326;28;20029;-85
2022/12/22 06:48:02;;;;;;;3.70;2.33;;;;;;;;;;2078324;28;20561;-84
2022/12/22 06:49:21;;;;;;;3.50;2.00;;;;;;;;;;2077397;28;20454;-78
2022/12/22 06:50:40;;;;;;;3.17;1.80;;;;;;;;;;2077702;28;20073;-79
2022/12/22 06:51:59;;;;;;;3.65;2.17;;;;;;;;;;2075601;28;20041;-79
2022/12/22 06:53:18;;;;;;;2.60;2.00;;;;;;;;;;2075223;28;20030;-79
2022/12/22 06:54:37;;;;;;;4.25;1.90;;;;;;;;;;2078668;28;20065;-81
2022/12/22 06:56:00;;;;;;;3.00;1.60;;;;;;;;;;2079111;28;20033;-81
2022/12/22 06:57:19;;;;;;;2.20;1.60;;;;;;;;;;2079702;28;20029;-83
2022/12/22 06:58:38;;;;;;;1.85;1.75;;;;;;;;;;2076479;28;20274;-80
2022/12/22 06:59:57;;;;;;;4.22;2.60;;;;;;;;;;2075509;28;20030;-81
2022/12/22 07:01:19;;;;;;;4.97;2.03;;;;;;;;;;2083756;28;20033;-80
2022/12/22 07:02:38;;;;;;;1.90;1.77;;;;;;;;;;2087869;28;20021;-85
2022/12/22 07:04:04;;;;;;;4.63;1.95;;;;;;;;;;2080560;28;20044;-84
2022/12/22 07:05:25;;;;;;;4.32;2.00;;;;;;;;;;2077693;28;20659;-82
2022/12/22 07:06:45;;;;;;;2.78;1.42;;;;;;;;;;2085853;28;20055;-78
2022/12/22 07:08:04;;;;;;;4.85;1.90;;;;;;;;;;2079014;28;20065;-80
2022/12/22 07:09:26;;;;;;;4.97;2.00;;;;;;;;;;2076067;28;20033;-80
2022/12/22 07:10:57;;;;;;;3.78;1.77;;;;;;;;;;2083634;28;20482;-79
2022/12/22 07:12:16;;;;;;;2.45;1.92;;;;;;;;;;2079675;28;20104;-81
2022/12/22 07:13:35;;;;;;;3.05;2.13;;;;;;;;;;2076599;28;20026;-75
2022/12/22 07:14:55;;;;;;;5.00;2.47;;;;;;;;;;2079642;28;20034;-81
2022/12/22 07:16:15;;;;;;;5.57;2.35;;;;;;;;;;2079765;28;20026;-81
2022/12/22 07:17:34;;;;;;;4.13;2.15;;;;;;;;;;2075592;28;20144;-81
2022/12/22 07:18:53;;;;;;;5.25;2.17;;;;;;;;;;2077506;28;21159;-81
2022/12/22 07:20:12;;;;;;;5.30;2.13;;;;;;;;;;2075861;28;20033;-81
2022/12/22 07:21:31;;;;;;;2.97;2.30;;;;;;;;;;2076447;28;20113;-81
2022/12/22 07:22:53;;;;;;;3.90;2.28;;;;;;;;;;2076445;28;20022;-82
2022/12/22 07:24:12;;;;;;;2.72;2.33;;;;;;;;;;2077574;28;20030;-82
2022/12/22 07:25:31;;;;;;;4.50;2.40;;;;;;;;;;2080129;28;20030;-80
2022/12/22 07:26:51;;;;;;;2.83;2.10;;;;;;;;;;2077467;28;20029;-81
2022/12/22 07:28:10;;;;;;;3.22;1.90;;;;;;;;;;2083838;28;20044;-79
2022/12/22 07:29:29;;;;;;;6.93;2.17;;;;;;;;;;2079405;28;20033;-79
2022/12/22 07:30:49;;;;;;;3.47;2.40;;;;;;;;;;2083931;28;20160;-81
2022/12/22 07:32:08;;;;;;;2.67;2.10;;;;;;;;;;2079232;28;20021;-80
2022/12/22 07:33:35;;;;;;;4.93;2.28;;;;;;;;;;2075504;28;20038;-83
2022/12/22 07:34:53;;;;;;;6.25;2.28;;;;;;;;;;2077144;28;20573;-83
2022/12/22 07:36:17;;;;;;;6.13;2.25;;;;;;;;;;2074533;28;20037;-82
2022/12/22 07:37:46;;;;;;;2.53;2.33;;;;;;;;;;2071853;28;20504;-84
2022/12/22 07:39:05;;;;;;;6.47;2.42;;;;;;;;;;2083091;28;20068;-80
2022/12/22 07:40:26;;;;;;;2.78;2.17;;;;;;;;;;2079937;28;20550;-82
2022/12/22 07:43:26;;;;;;;3.30;1.80;;;;;;;;;;2078897;28;20109;-79
2022/12/22 07:44:45;;;;;;;3.75;1.77;;;;;;;;;;2077296;28;20041;-81
2022/12/22 07:46:05;;;;;;;4.20;2.03;;;;;;;;;;2078128;28;20041;-79
2022/12/22 07:47:24;;;;;;;4.50;2.05;;;;;;;;;;2079267;28;20569;-79
2022/12/22 07:50:24;;;;;;;6.63;2.22;;;;;;;;;;2078777;28;20033;-82
2022/12/22 07:51:44;;;;;;;3.03;2.13;;;;;;;;;;2079325;28;20033;-81
2022/12/22 07:53:04;;;;;;;4.32;2.20;;;;;;;;;;2076088;28;20104;-80
2022/12/22 07:54:23;;;;;;;3.10;1.88;;;;;;;;;;2074184;28;20061;-82
2022/12/22 07:55:42;;;;;;;7.20;2.20;;;;;;;;;;2076400;28;20026;-79
2022/12/22 07:57:01;;;;;;;2.65;1.88;;;;;;;;;;2075899;28;20042;-81
2022/12/22 07:58:20;;;;;;;5.38;2.40;;;;;;;;;;2075455;28;20395;-80
2022/12/22 07:59:39;;;;;;;5.15;1.77;;;;;;;;;;2074752;28;20038;-79
2022/12/22 08:00:58;;;;;;;5.35;1.98;;;;;;;;;;2085210;28;20021;-81
2022/12/22 08:02:17;;;;;;;3.53;1.70;;;;;;;;;;2076815;28;20030;-82
2022/12/22 08:03:36;;;;;;;2.60;2.10;;;;;;;;;;2082924;28;20017;-82
2022/12/22 08:04:58;;;;;;;2.78;1.60;;;;;;;;;;2078983;28;20029;-82
2022/12/22 08:06:17;;;;;;;4.57;1.63;;;;;;;;;;2075660;28;20038;-82
2022/12/22 08:07:37;;;;;;;2.00;1.80;;;;;;;;;;2075273;28;20033;-82
2022/12/22 08:08:55;;;;;;;4.47;2.17;;;;;;;;;;2077035;28;20057;-81
2022/12/22 08:10:16;;;;;;;4.03;2.08;;;;;;;;;;2075437;28;20025;-81
2022/12/22 08:11:35;;;;;;;6.05;1.95;;;;;;;;;;2075173;28;20045;-80
2022/12/22 08:12:55;;;;;;;4.13;2.13;;;;;;;;;;2074507;28;20029;-79
2022/12/22 08:14:14;;;;;;;3.95;2.38;;;;;;;;;;2081084;28;20037;-81
2022/12/22 08:15:33;;;;;;;3.90;1.95;;;;;;;;;;2078911;28;20041;-79
2022/12/22 08:16:51;;;;;;;3.92;1.85;;;;;;;;;;2076215;28;20061;-82
2022/12/22 08:18:10;;;;;;;3.83;1.67;;;;;;;;;;2079590;28;20042;-83
2022/12/22 08:19:34;;;;;;;10.15;5.03;;;;;;;;;;2079209;28;20047;-83
2022/12/22 08:20:54;;;;;;;3.45;2.20;;;;;;;;;;2079229;28;20022;-84
2022/12/22 08:22:13;;;;;;;3.50;1.92;;;;;;;;;;2082748;28;20037;-83
2022/12/22 08:23:32;;;;;;;6.80;2.53;;;;;;;;;;2081629;28;20049;-82
2022/12/22 08:24:52;;;;;;;4.15;2.38;;;;;;;;;;2081073;28;20089;-83
2022/12/22 08:26:16;;;;;;;4.18;1.90;;;;;;;;;;2079107;28;20026;-84
2022/12/22 08:27:39;;;;;;;6.75;2.28;;;;;;;;;;2079739;28;20033;-82
2022/12/22 08:29:04;;;;;;;5.35;1.90;;;;;;;;;;2079364;28;20398;-83
2022/12/22 08:30:23;;;;;;;3.22;2.03;;;;;;;;;;2079184;28;20033;-83
2022/12/22 08:31:42;;;;;;;4.60;1.77;;;;;;;;;;2078224;28;20029;-83
2022/12/22 08:33:01;;;;;;;5.70;2.03;;;;;;;;;;2079503;28;20033;-81
2022/12/22 08:34:19;;;;;;;4.53;1.80;;;;;;;;;;2079446;28;20079;-82
2022/12/22 08:35:39;;;;;;;3.70;1.98;;;;;;;;;;2077229;28;20029;-83
2022/12/22 08:36:59;;;;;;;3.28;1.45;;;;;;;;;;2077583;28;20034;-81
2022/12/22 08:38:19;;;;;;;5.13;2.00;;;;;;;;;;2077761;28;20502;-81
2022/12/22 08:39:39;;;;;;;7.20;1.95;;;;;;;;;;2075426;28;20033;-83
2022/12/22 08:40:58;;;;;;;6.80;1.60;;;;;;;;;;2077516;28;20026;-79
2022/12/22 08:42:18;;;;;;;2.88;1.70;;;;;;;;;;2076420;28;20026;-82
2022/12/22 08:43:40;;;;;;;3.75;2.53;;;;;;;;;;2075667;28;20033;-80
2022/12/22 08:45:01;;;;;;;5.63;1.70;;;;;;;;;;2079118;28;20077;-80
2022/12/22 08:46:20;;;;;;;3.95;2.42;;;;;;;;;;2078185;28;20100;-80
2022/12/22 08:47:39;;;;;;;4.75;1.98;;;;;;;;;;2077067;28;20030;-79
2022/12/22 08:48:58;;;;;;;6.53;2.10;;;;;;;;;;2077744;28;20064;-81
2022/12/22 08:50:17;;;;;;;5.82;2.20;;;;;;;;;;2078098;28;20029;-79
2022/12/22 08:51:36;;;;;;;6.18;2.05;;;;;;;;;;2077459;28;20022;-81
2022/12/22 08:53:06;;;;;;;5.80;2.03;;;;;;;;;;2077104;28;20026;-79
2022/12/22 08:54:25;;;;;;;11.05;2.38;;;;;;;;;;2079658;28;20022;-80
2022/12/22 08:55:53;;;;;;;3.95;1.80;;;;;;;;;;2085644;28;20064;-80
2022/12/22 08:57:12;;;;;;;3.20;1.75;;;;;;;;;;2080002;28;20550;-80
2022/12/22 08:58:32;;;;;;;3.45;1.60;;;;;;;;;;2076901;28;20029;-79
2022/12/22 08:59:51;;;;;;;3.00;1.80;;;;;;;;;;2080455;28;20033;-80
2022/12/22 09:01:21;;;;;;;3.45;1.92;;;;;;;;;;2079301;28;20441;-80
2022/12/22 09:02:39;;;;;;;3.70;1.67;;;;;;;;;;2078402;28;20412;-80
2022/12/22 09:03:58;;;;;;;10.50;2.90;;;;;;;;;;2076052;28;20079;-79
2022/12/22 09:05:18;;;;;;;2.33;1.45;;;;;;;;;;2076571;28;20030;-80
2022/12/22 09:06:37;;;;;;;3.15;1.70;;;;;;;;;;2077443;28;20104;-80
2022/12/22 09:07:56;;;;;;;4.35;2.10;;;;;;;;;;2077390;28;20029;-79
2022/12/22 09:09:15;;;;;;;7.57;2.15;;;;;;;;;;2076397;28;20018;-81
2022/12/22 09:10:35;;;;;;;3.65;1.73;;;;;;;;;;2076749;28;20033;-81
2022/12/22 09:11:55;;;;;;;5.55;1.60;;;;;;;;;;2076418;28;20029;-81
2022/12/22 09:13:14;;;;;;;3.72;1.40;;;;;;;;;;2075485;28;20060;-80
2022/12/22 09:14:33;;;;;;;6.32;2.03;;;;;;;;;;2077602;28;20041;-80
2022/12/22 09:15:52;;;;;;;5.30;1.50;;;;;;;;;;2074856;28;20100;-81
2022/12/22 09:17:11;;;;;;;3.83;1.95;;;;;;;;;;2076706;28;20589;-81
2022/12/22 09:18:30;;;;;;;5.53;1.58;;;;;;;;;;2077625;28;20025;-81
2022/12/22 09:19:49;;;;;;;4.75;1.90;;;;;;;;;;2076646;28;20033;-81
2022/12/22 09:21:07;;;;;;;7.18;1.85;;;;;;;;;;2080359;28;20021;-81
2022/12/22 09:22:26;;;;;;;5.32;1.88;;;;;;;;;;2076967;28;20034;-82
2022/12/22 09:23:45;;;;;;;6.18;1.80;;;;;;;;;;2077932;28;20056;-81
2022/12/22 09:25:04;;;;;;;6.80;1.52;;;;;;;;;;2077575;28;20479;-81
2022/12/22 09:26:24;;;;;;;11.57;2.00;;;;;;;;;;2078103;28;20514;-82
2022/12/22 09:27:43;;;;;;;7.13;1.90;;;;;;;;;;2085470;28;20032;-81
2022/12/22 09:29:02;;;;;;;8.70;2.08;;;;;;;;;;2081289;28;20033;-81
2022/12/22 09:30:21;;;;;;;5.03;1.77;;;;;;;;;;2077668;28;20096;-81
2022/12/22 09:31:40;;;;;;;4.35;1.52;;;;;;;;;;2077132;28;20030;-81
2022/12/22 09:32:59;;;;;;;5.55;1.88;;;;;;;;;;2076605;28;20030;-81
2022/12/22 09:34:18;;;;;;;5.80;1.90;;;;;;;;;;2077049;28;20037;-81
2022/12/22 09:35:39;;;;;;;3.80;1.73;;;;;;;;;;2077661;28;20025;-83
2022/12/22 09:36:59;;;;;;;2.67;1.92;;;;;;;;;;2081312;28;20264;-82
2022/12/22 09:38:17;;;;;;;4.88;1.50;;;;;;;;;;2076618;28;20026;-81
2022/12/22 09:39:36;;;;;;;6.55;1.63;;;;;;;;;;2085655;28;20449;-82
2022/12/22 09:40:56;;;;;;;2.50;1.35;;;;;;;;;;2079958;28;20030;-81
2022/12/22 09:42:17;;;;;;;7.70;2.20;;;;;;;;;;2077925;28;20033;-82
2022/12/22 09:43:36;;;;;;;5.90;1.70;;;;;;;;;;2077226;28;20034;-81
2022/12/22 09:44:55;;;;;;;10.35;1.90;;;;;;;;;;2074824;28;20038;-81
2022/12/22 09:46:22;;;;;;;4.43;1.83;;;;;;;;;;2081422;28;20065;-81
2022/12/22 09:47:41;;;;;;;4.55;1.40;;;;;;;;;;2088901;28;20017;-81
2022/12/22 09:49:01;;;;;;;6.65;2.08;;;;;;;;;;2080511;28;20025;-80
2022/12/22 09:50:24;;;;;;;7.75;2.03;;;;;;;;;;2077819;28;20041;-81
2022/12/22 09:51:46;;;;;;;4.80;1.50;;;;;;;;;;2080464;28;20386;-82
2022/12/22 09:53:07;;;;;;;6.82;1.58;;;;;;;;;;2079908;28;20025;-81
2022/12/22 09:54:26;;;;;;;5.93;1.48;;;;;;;;;;2078025;28;20030;-82
2022/12/22 09:55:46;;;;;;;6.88;2.22;;;;;;;;;;2077316;28;20387;-81
2022/12/22 09:57:09;;;;;;;3.50;1.40;;;;;;;;;;2077480;28;20033;-81
2022/12/22 09:58:28;;;;;;;9.43;1.85;;;;;;;;;;2079620;28;20085;-82
2022/12/22 09:59:47;;;;;;;5.80;1.55;;;;;;;;;;2080086;28;20030;-81
2022/12/22 10:01:21;;;;;;;4.90;1.50;;;;;;;;;;2079289;28;20025;-81
2022/12/22 10:02:59;;;;;;;4.18;1.58;;;;;;;;;;2079221;28;20033;-80
2022/12/22 10:04:39;;;;;;;7.53;2.20;;;;;;;;;;2087364;28;20032;-81
2022/12/22 10:06:10;;;;;;;5.20;1.95;;;;;;;;;;2065309;28;20030;-81
2022/12/22 10:07:31;;;;;;;8.18;1.95;;;;;;;;;;2077963;28;20139;-82
2022/12/22 10:08:52;;;;;;;5.50;1.80;;;;;;;;;;2076644;28;20475;-81
2022/12/22 10:10:26;;;;;;;3.25;1.52;;;;;;;;;;2080673;28;20017;-81
2022/12/22 10:11:52;;;;;;;14.00;2.40;;;;;;;;;;2080646;28;20022;-82
2022/12/22 10:13:17;;;;;;;7.35;1.70;;;;;;;;;;2076890;28;20029;-81
2022/12/22 10:14:37;;;;;;;5.85;2.45;;;;;;;;;;2078207;28;20033;-81
2022/12/22 10:15:57;;;;;;;5.18;2.28;;;;;;;;;;2075521;28;20021;-81
2022/12/22 10:17:21;;;;;;;5.93;2.10;;;;;;;;;;2085793;28;20061;-81
2022/12/22 10:18:53;;;;;;;5.70;2.20;;;;;;;;;;2079662;28;20455;-81
2022/12/22 10:20:20;;;;;;;6.28;2.22;;;;;;;;;;2078179;28;20026;-81
2022/12/22 10:21:42;;;;;;;8.15;2.33;;;;;;;;;;2078457;28;20041;-80
2022/12/22 10:23:05;;;;;;;5.38;1.65;;;;;;;;;;2084789;28;20148;-81
2022/12/22 10:24:26;;;;;;;7.03;2.10;;;;;;;;;;2088831;28;20100;-81
2022/12/22 10:25:54;;;;;;;6.82;2.00;;;;;;;;;;2080031;28;20029;-82
2022/12/22 10:27:13;;;;;;;3.40;1.77;;;;;;;;;;2085743;28;21103;-85
2022/12/22 10:28:34;;;;;;;10.48;1.90;;;;;;;;;;2080090;28;20473;-85
2022/12/22 10:29:56;;;;;;;5.43;1.88;;;;;;;;;;2081825;28;20033;-84
2022/12/22 10:31:20;;;;;;;8.43;1.83;;;;;;;;;;2077907;28;20453;-84
2022/12/22 10:32:39;;;;;;;5.53;2.00;;;;;;;;;;2078347;28;20425;-82
2022/12/22 10:34:26;;;;;;;7.57;1.98;;;;;;;;;;2079231;28;20025;-86
2022/12/22 10:35:49;;;;;;;5.75;1.92;;;;;;;;;;2084305;28;20169;-86
2022/12/22 10:37:11;;;;;;;4.97;1.95;;;;;;;;;;2085661;28;20045;-86
2022/12/22 10:38:32;;;;;;;6.65;1.88;;;;;;;;;;2078031;28;20025;-86
2022/12/22 10:39:51;;;;;;;11.20;2.15;;;;;;;;;;2077147;28;20033;-87
2022/12/22 10:41:24;;;;;;;8.02;1.67;;;;;;;;;;2077970;28;20017;-88
2022/12/22 10:44:44;;;;;;;6.55;1.75;;;;;;;;;;2079592;28;20064;-89
2022/12/22 10:46:06;;;;;;;6.22;1.60;;;;;;;;;;2080194;28;20097;-88
2022/12/22 10:47:26;;;;;;;5.90;2.20;;;;;;;;;;2077004;28;20026;-88
2022/12/22 10:49:10;;;;;;;8.18;2.05;;;;;;;;;;2077171;28;20025;-88
2022/12/22 10:50:33;;;;;;;7.38;2.58;;;;;;;;;;2079515;28;20530;-89
2022/12/22 10:51:52;;;;;;;6.78;2.00;;;;;;;;;;2077587;28;20030;-87
2022/12/22 10:53:20;;;;;;;6.20;1.88;;;;;;;;;;2075477;28;20140;-87
2022/12/22 10:54:43;;;;;;;7.30;1.77;;;;;;;;;;2077274;28;20037;-87
2022/12/22 10:56:21;;;;;;;10.40;1.75;;;;;;;;;;2079887;28;20026;-87
2022/12/22 10:57:40;;;;;;;5.07;1.80;;;;;;;;;;2080147;28;20034;-87
2022/12/22 10:59:40;;;;;;;5.78;2.00;;;;;;;;;;2077117;28;20164;-90
2022/12/22 11:03:15;;;;;;;;;;;;;;;;;;;;;
2022/12/22 11:05:40;;;;;;;9.75;1.60;;;;;;;;;;2062703;28;20033;-88
2022/12/22 11:06:34;;;;;;;7.00;1.55;;;;;;;;;;2059974;28;20043;-86
2022/12/22 11:08:12;;;;;;;5.50;1.90;;;;;;;;;;2072500;28;20121;-88
2022/12/22 11:10:06;;;;;;;3.33;1.70;;;;;;;;;;2087429;28;20116;-87
2022/12/22 11:11:33;;;;;;;5.60;1.75;;;;;;;;;;2081192;28;20025;-88
2022/12/22 11:13:02;;;;;;;;;;;;;;;;;;;;;
2022/12/22 11:15:08;;;;;;;;;;;;;;;;;;;;;
2022/12/22 11:16:41;;;;;;;7.35;1.80;;;;;;;;;;2081003;28;20398;-88
2022/12/22 11:26:23;;;;;;;;;;;;;;;;;;;;;
2022/12/22 11:44:35;;;;;;;7.72;1.77;;;;;;;;;;2079453;28;20029;-89
2022/12/22 11:48:07;;;;;;;7.35;1.98;;;;;;;;;;2077470;28;21287;-90
2022/12/22 11:49:51;;;;;;;9.00;1.95;;;;;;;;;;2072892;28;20034;-89
2022/12/22 11:51:16;;;;;;;9.40;1.92;;;;;;;;;;2090380;28;20021;-89
2022/12/22 11:52:57;;;;;;;6.13;2.20;;;;;;;;;;2080845;28;20033;-88
2022/12/22 11:54:19;;;;;;;8.57;2.30;;;;;;;;;;2080622;28;20033;-89
2022/12/22 11:56:02;;;;;;;7.82;2.22;;;;;;;;;;2079961;28;20072;-90
2022/12/22 11:57:27;;;;;;;10.18;2.33;;;;;;;;;;2081639;28;20116;-89
2022/12/22 11:59:07;;;;;;;9.80;2.53;;;;;;;;;;2082566;28;20112;-89
2022/12/22 12:00:29;;;;;;;7.75;2.50;;;;;;;;;;2080011;28;20033;-84
2022/12/22 12:01:48;;;;;;;7.35;2.92;;;;;;;;;;2078567;28;20053;-85
2022/12/22 12:03:25;;;;;;;9.60;3.30;;;;;;;;;;2078246;28;20467;-86
2022/12/22 12:05:02;;;;;;;8.65;2.67;;;;;;;;;;2082530;28;20025;-88
2022/12/22 12:06:28;;;;;;;6.63;2.90;;;;;;;;;;2080758;28;20025;-86
2022/12/22 12:07:47;;;;;;;3.85;3.03;;;;;;;;;;2080629;28;20030;-88
2022/12/22 12:09:24;;;;;;;7.97;3.00;;;;;;;;;;2078157;28;20112;-87
2022/12/22 12:10:46;;;;;;;4.05;2.60;;;;;;;;;;2087100;28;20044;-87
2022/12/22 12:12:21;;;;;;;3.97;2.55;;;;;;;;;;2082409;28;20029;-88
2022/12/22 12:13:56;;;;;;;11.82;3.83;;;;;;;;;;2087978;28;20017;-88
2022/12/22 12:15:19;;;;;;;13.35;3.20;;;;;;;;;;2089502;28;20025;-87
2022/12/22 12:16:38;;;;;;;6.88;3.60;;;;;;;;;;2082178;28;20117;-88
2022/12/22 12:18:00;;;;;;;8.73;3.65;;;;;;;;;;2080401;28;20033;-88
2022/12/22 12:19:22;;;;;;;14.38;3.45;;;;;;;;;;2079057;28;20100;-88
2022/12/22 12:20:47;;;;;;;10.85;3.90;;;;;;;;;;2087652;28;20509;-88
2022/12/22 12:22:09;;;;;;;7.88;3.00;;;;;;;;;;2082580;28;20754;-88
2022/12/22 12:23:33;;;;;;;9.27;3.28;;;;;;;;;;2087056;28;20024;-87